createdAt,value
2018-07-25T00:02:22.999Z,25.31
2018-07-25T00:04:52.071Z,25.27
2018-07-25T00:07:20.930Z,25.24
2018-07-25T00:09:50.291Z,25.22
2018-07-25T00:12:19.285Z,25.19
2018-07-25T00:14:48.278Z,25.14
2018-07-25T00:17:17.233Z,25.10
2018-07-25T00:19:46.119Z,25.04
2018-07-25T00:22:15.058Z,24.93
2018-07-25T00:24:44.046Z,24.86
2018-07-25T00:27:12.703Z,24.85
2018-07-25T00:29:41.393Z,24.83
2018-07-25T00:32:10.315Z,24.84
2018-07-25T00:34:39.365Z,24.81
2018-07-25T00:37:08.554Z,24.78
2018-07-25T00:39:39.024Z,24.77
2018-07-25T00:42:07.848Z,24.76
2018-07-25T00:44:36.512Z,24.76
2018-07-25T00:47:05.465Z,24.74
2018-07-25T00:49:34.418Z,24.74
2018-07-25T00:52:03.064Z,24.73
2018-07-25T00:54:31.977Z,24.69
2018-07-25T00:57:00.667Z,24.65
2018-07-25T00:59:29.344Z,24.63
2018-07-25T01:01:58.404Z,24.63
2018-07-25T01:04:27.040Z,24.60
2018-07-25T01:06:55.737Z,24.59
2018-07-25T01:09:24.956Z,24.57
2018-07-25T01:11:54.529Z,24.54
2018-07-25T01:14:23.533Z,24.48
2018-07-25T01:16:53.279Z,24.41
2018-07-25T01:19:22.035Z,24.36
2018-07-25T01:21:50.904Z,24.31
2018-07-25T01:24:19.585Z,24.28
2018-07-25T01:26:48.341Z,24.29
2018-07-25T01:29:17.438Z,24.28
2018-07-25T01:31:46.586Z,24.29
2018-07-25T01:34:15.686Z,24.28
2018-07-25T01:36:45.165Z,24.28
2018-07-25T01:39:15.035Z,24.24
2018-07-25T01:41:44.531Z,24.21
2018-07-25T01:44:14.101Z,24.20
2018-07-25T01:46:44.012Z,24.22
2018-07-25T01:49:13.048Z,24.22
2018-07-25T01:51:44.036Z,24.23
2018-07-25T01:54:13.794Z,24.21
2018-07-25T01:56:42.777Z,24.21
2018-07-25T01:59:11.666Z,24.19
2018-07-25T02:01:41.345Z,24.17
2018-07-25T02:04:10.030Z,24.16
2018-07-25T02:06:39.147Z,24.14
2018-07-25T02:09:11.727Z,24.12
2018-07-25T02:11:40.697Z,24.11
2018-07-25T02:14:09.934Z,24.08
2018-07-25T02:16:38.578Z,24.08
2018-07-25T02:19:07.311Z,24.08
2018-07-25T02:21:36.611Z,24.08
2018-07-25T02:24:05.913Z,24.07
2018-07-25T02:26:34.907Z,24.05
2018-07-25T02:29:03.724Z,24.04
2018-07-25T02:31:32.408Z,24.00
2018-07-25T02:34:06.598Z,24.01
2018-07-25T02:36:35.384Z,23.99
2018-07-25T02:39:05.085Z,23.98
2018-07-25T02:41:33.743Z,23.97
2018-07-25T02:44:02.776Z,23.94
2018-07-25T02:46:32.082Z,23.88
2018-07-25T02:49:00.978Z,23.85
2018-07-25T02:51:30.379Z,23.80
2018-07-25T02:53:59.001Z,23.78
2018-07-25T02:56:27.664Z,23.76
2018-07-25T02:58:56.714Z,23.73
2018-07-25T03:01:25.655Z,23.69
2018-07-25T03:03:54.606Z,23.71
2018-07-25T03:06:23.531Z,23.66
2018-07-25T03:08:52.574Z,23.63
2018-07-25T03:11:21.520Z,23.65
2018-07-25T03:13:50.519Z,23.64
2018-07-25T03:16:19.159Z,23.65
2018-07-25T03:18:47.814Z,23.69
2018-07-25T03:21:16.628Z,23.70
2018-07-25T03:23:45.739Z,23.69
2018-07-25T03:26:14.768Z,23.68
2018-07-25T03:28:43.481Z,23.70
2018-07-25T03:31:12.133Z,23.73
2018-07-25T03:33:41.140Z,23.74
2018-07-25T03:36:10.024Z,23.74
2018-07-25T03:38:38.807Z,23.76
2018-07-25T03:41:07.800Z,23.79
2018-07-25T03:43:36.465Z,23.83
2018-07-25T03:46:05.140Z,23.86
2018-07-25T03:48:34.070Z,23.87
2018-07-25T03:51:03.703Z,23.89
2018-07-25T03:53:32.345Z,23.89
2018-07-25T03:56:01.614Z,23.92
2018-07-25T03:58:31.032Z,23.95
2018-07-25T04:00:59.646Z,23.99
2018-07-25T04:03:28.364Z,24.01
2018-07-25T04:05:57.033Z,24.03
2018-07-25T04:08:25.724Z,24.04
2018-07-25T04:10:54.691Z,23.97
2018-07-25T04:13:23.706Z,23.93
2018-07-25T04:15:52.364Z,23.94
2018-07-25T04:18:21.435Z,23.97
2018-07-25T04:20:50.389Z,23.99
2018-07-25T04:23:19.351Z,24.02
2018-07-25T04:25:47.973Z,24.05
2018-07-25T04:28:16.836Z,24.10
2018-07-25T04:30:45.752Z,24.14
2018-07-25T04:33:14.719Z,24.18
2018-07-25T04:35:44.149Z,24.21
2018-07-25T04:38:13.473Z,24.22
2018-07-25T04:40:42.115Z,24.23
2018-07-25T04:43:10.723Z,24.24
2018-07-25T04:45:39.551Z,24.23
2018-07-25T04:48:08.818Z,24.22
2018-07-25T04:50:37.566Z,24.20
2018-07-25T04:53:06.372Z,24.17
2018-07-25T04:55:35.382Z,24.15
2018-07-25T04:58:04.687Z,24.13
2018-07-25T05:00:33.449Z,24.13
2018-07-25T05:03:03.101Z,24.13
2018-07-25T05:05:32.462Z,24.14
2018-07-25T05:08:01.702Z,24.15
2018-07-25T05:10:30.397Z,24.17
2018-07-25T05:12:59.083Z,24.20
2018-07-25T05:15:28.187Z,24.24
2018-07-25T05:17:56.861Z,24.26
2018-07-25T05:20:25.829Z,24.30
2018-07-25T05:22:54.479Z,24.32
2018-07-25T05:25:23.170Z,24.33
2018-07-25T05:27:51.792Z,24.32
2018-07-25T05:30:20.469Z,24.31
2018-07-25T05:32:49.839Z,24.32
2018-07-25T05:35:18.893Z,24.34
2018-07-25T05:37:47.538Z,24.37
2018-07-25T05:40:16.269Z,24.40
2018-07-25T05:42:45.465Z,24.44
2018-07-25T05:45:14.658Z,24.48
2018-07-25T05:47:43.596Z,24.52
2018-07-25T05:50:12.274Z,24.56
2018-07-25T05:52:41.039Z,24.61
2018-07-25T05:55:09.917Z,24.68
2018-07-25T05:57:38.582Z,24.72
2018-07-25T06:00:07.339Z,24.78
2018-07-25T06:02:36.371Z,24.82
2018-07-25T06:05:05.151Z,24.87
2018-07-25T06:07:34.144Z,24.91
2018-07-25T06:10:02.865Z,24.97
2018-07-25T06:12:31.854Z,25.01
2018-07-25T06:15:00.554Z,25.04
2018-07-25T06:17:29.242Z,25.03
2018-07-25T06:19:58.088Z,25.07
2018-07-25T06:22:26.776Z,25.08
2018-07-25T06:24:55.923Z,25.11
2018-07-25T06:27:24.576Z,25.16
2018-07-25T06:29:53.809Z,25.22
2018-07-25T06:32:22.463Z,25.30
2018-07-25T06:34:51.185Z,25.38
2018-07-25T06:37:20.481Z,25.50
2018-07-25T06:39:49.213Z,25.58
2018-07-25T06:42:17.921Z,25.72
2018-07-25T06:44:46.814Z,25.96
2018-07-25T06:47:15.549Z,26.18
2018-07-25T06:49:44.287Z,26.42
2018-07-25T06:52:16.820Z,26.62
2018-07-25T06:54:45.959Z,26.89
2018-07-25T06:57:16.032Z,27.15
2018-07-25T06:59:45.872Z,27.42
2018-07-25T07:02:14.565Z,27.67
2018-07-25T07:04:43.340Z,27.80
2018-07-25T07:07:12.259Z,27.91
2018-07-25T07:09:41.226Z,28.07
2018-07-25T07:12:10.192Z,28.28
2018-07-25T07:14:39.086Z,28.55
2018-07-25T07:17:08.106Z,28.82
2018-07-25T07:19:36.792Z,29.06
2018-07-25T07:22:05.956Z,29.23
2018-07-25T07:24:34.758Z,29.39
2018-07-25T07:27:03.539Z,29.53
2018-07-25T07:29:32.247Z,29.63
2018-07-25T07:32:01.113Z,29.73
2018-07-25T07:34:30.674Z,29.81
2018-07-25T07:36:59.421Z,29.70
2018-07-25T07:39:28.167Z,29.61
2018-07-25T07:41:56.917Z,29.66
2018-07-25T07:44:25.930Z,29.61
2018-07-25T07:46:54.717Z,29.67
2018-07-25T07:49:23.659Z,29.67
2018-07-25T07:51:52.303Z,29.55
2018-07-25T07:54:21.336Z,29.39
2018-07-25T07:56:50.023Z,29.18
2018-07-25T07:59:18.711Z,29.13
2018-07-25T08:01:47.428Z,29.24
2018-07-25T08:04:16.140Z,29.39
2018-07-25T08:06:44.873Z,29.53
2018-07-25T08:09:13.953Z,29.80
2018-07-25T08:11:42.949Z,29.90
2018-07-25T08:14:11.674Z,30.01
2018-07-25T08:16:40.978Z,30.13
2018-07-25T08:19:13.046Z,30.40
2018-07-25T08:21:42.006Z,30.73
2018-07-25T08:24:11.074Z,31.12
2018-07-25T08:26:40.398Z,31.42
2018-07-25T08:29:09.082Z,31.62
2018-07-25T08:31:37.744Z,31.83
2018-07-25T08:34:06.694Z,32.10
2018-07-25T08:36:35.417Z,32.56
2018-07-25T08:39:06.842Z,32.95
2018-07-25T08:41:35.728Z,33.20
2018-07-25T08:44:05.612Z,32.60
2018-07-25T08:46:34.347Z,32.58
2018-07-25T08:49:03.679Z,32.96
2018-07-25T08:51:32.677Z,33.18
2018-07-25T08:54:01.376Z,33.55
2018-07-25T08:56:30.332Z,34.08
2018-07-25T08:58:59.758Z,34.28
2018-07-25T09:01:28.694Z,33.79
2018-07-25T09:03:57.853Z,33.31
2018-07-25T09:06:26.794Z,32.81
2018-07-25T09:08:55.661Z,32.35
2018-07-25T09:11:29.249Z,32.22
2018-07-25T09:13:58.890Z,32.11
2018-07-25T09:16:28.086Z,32.11
2018-07-25T09:18:56.801Z,32.09
2018-07-25T09:21:25.831Z,32.24
2018-07-25T09:23:54.545Z,32.75
2018-07-25T09:26:23.598Z,33.14
2018-07-25T09:28:52.231Z,33.37
2018-07-25T09:31:20.887Z,33.72
2018-07-25T09:33:49.668Z,33.89
2018-07-25T09:36:18.910Z,34.04
2018-07-25T09:38:47.602Z,33.70
2018-07-25T09:41:16.343Z,32.77
2018-07-25T09:43:45.131Z,31.97
2018-07-25T09:46:14.002Z,31.66
2018-07-25T09:48:42.749Z,31.23
2018-07-25T09:51:11.808Z,30.96
2018-07-25T09:53:41.066Z,30.65
2018-07-25T09:56:09.726Z,30.38
2018-07-25T09:58:38.494Z,30.40
2018-07-25T10:01:07.705Z,30.55
2018-07-25T10:03:36.675Z,30.37
2018-07-25T10:06:05.491Z,30.21
2018-07-25T10:08:34.817Z,29.95
2018-07-25T10:11:03.784Z,29.66
2018-07-25T10:13:32.476Z,29.46
2018-07-25T10:16:01.191Z,29.30
2018-07-25T10:18:30.221Z,29.22
2018-07-25T10:20:58.941Z,29.14
2018-07-25T10:23:27.577Z,29.18
2018-07-25T10:25:56.621Z,29.21
2018-07-25T10:28:25.624Z,29.29
2018-07-25T10:30:54.575Z,29.55
2018-07-25T10:33:23.237Z,29.88
2018-07-25T10:35:52.043Z,30.26
2018-07-25T10:38:21.689Z,30.76
2018-07-25T10:40:51.449Z,31.37
2018-07-25T10:43:20.222Z,31.99
2018-07-25T10:45:49.283Z,32.44
2018-07-25T10:48:18.189Z,32.58
2018-07-25T10:50:48.985Z,32.52
2018-07-25T10:53:17.700Z,32.59
2018-07-25T10:55:46.571Z,32.51
2018-07-25T10:58:15.651Z,32.38
2018-07-25T11:00:44.390Z,32.30
2018-07-25T11:03:13.585Z,32.39
2018-07-25T11:05:42.727Z,32.18
2018-07-25T11:08:12.657Z,31.98
2018-07-25T11:10:41.366Z,32.01
2018-07-25T11:13:10.503Z,32.12
2018-07-25T11:15:39.326Z,32.17
2018-07-25T11:18:08.241Z,32.17
2018-07-25T11:20:37.512Z,31.79
2018-07-25T11:23:06.808Z,31.39
2018-07-25T11:25:36.758Z,31.18
2018-07-25T11:28:05.651Z,31.26
2018-07-25T11:30:35.242Z,31.50
2018-07-25T11:33:04.227Z,31.68
2018-07-25T11:35:33.225Z,31.79
2018-07-25T11:38:02.278Z,31.74
2018-07-25T11:40:30.956Z,32.24
2018-07-25T11:42:59.678Z,32.58
2018-07-25T11:45:28.353Z,33.33
2018-07-25T11:47:57.355Z,33.89
2018-07-25T11:50:26.127Z,33.68
2018-07-25T11:52:54.764Z,33.11
2018-07-25T11:55:23.827Z,32.61
2018-07-25T11:57:52.477Z,32.75
2018-07-25T12:00:21.694Z,33.13
2018-07-25T12:02:51.441Z,34.03
2018-07-25T12:05:20.397Z,35.28
2018-07-25T12:07:49.631Z,35.74
2018-07-25T12:10:18.511Z,35.53
2018-07-25T12:12:47.414Z,34.65
2018-07-25T12:15:16.088Z,33.74
2018-07-25T12:17:44.933Z,34.46
2018-07-25T12:20:13.693Z,37.49
2018-07-25T12:22:42.506Z,40.14
2018-07-25T12:25:11.241Z,42.29
2018-07-25T12:27:39.977Z,44.45
2018-07-25T12:30:09.364Z,46.09
2018-07-25T12:32:38.484Z,47.23
2018-07-25T12:35:07.240Z,48.38
2018-07-25T12:37:36.210Z,48.51
2018-07-25T12:40:05.092Z,48.70
2018-07-25T12:42:33.743Z,48.73
2018-07-25T12:45:02.700Z,48.93
2018-07-25T12:47:31.719Z,49.62
2018-07-25T12:50:00.360Z,49.59
2018-07-25T12:52:29.172Z,49.31
2018-07-25T12:54:57.810Z,48.44
2018-07-25T12:57:26.464Z,48.80
2018-07-25T12:59:55.429Z,49.52
2018-07-25T13:02:24.224Z,50.19
2018-07-25T13:04:52.979Z,50.63
2018-07-25T13:07:22.284Z,50.42
2018-07-25T13:09:50.958Z,50.63
2018-07-25T13:12:20.149Z,50.78
2018-07-25T13:14:49.292Z,49.62
2018-07-25T13:17:17.977Z,50.19
2018-07-25T13:19:46.650Z,50.33
2018-07-25T13:22:15.911Z,50.45
2018-07-25T13:24:45.056Z,50.69
2018-07-25T13:27:13.777Z,49.83
2018-07-25T13:29:42.772Z,49.14
2018-07-25T13:32:11.467Z,49.46
2018-07-25T13:34:40.448Z,49.95
2018-07-25T13:37:09.413Z,50.59
2018-07-25T13:39:38.512Z,51.12
2018-07-25T13:42:07.476Z,51.39
2018-07-25T13:44:36.424Z,51.64
2018-07-25T13:47:05.346Z,51.17
2018-07-25T13:49:34.365Z,49.82
2018-07-25T13:52:03.730Z,46.78
2018-07-25T13:54:32.313Z,42.99
2018-07-25T13:57:00.974Z,40.41
2018-07-25T13:59:29.656Z,41.66
2018-07-25T14:01:58.457Z,43.73
2018-07-25T14:04:27.643Z,45.95
2018-07-25T14:06:56.393Z,47.58
2018-07-25T14:09:25.319Z,48.72
2018-07-25T14:11:54.508Z,49.48
2018-07-25T14:14:23.270Z,50.08
2018-07-25T14:16:52.497Z,50.52
2018-07-25T14:19:21.821Z,50.33
2018-07-25T14:21:50.521Z,49.77
2018-07-25T14:24:19.548Z,49.11
2018-07-25T14:26:48.555Z,48.75
2018-07-25T14:29:17.460Z,47.70
2018-07-25T14:31:46.561Z,46.74
2018-07-25T14:34:15.558Z,45.65
2018-07-25T14:36:44.273Z,44.26
2018-07-25T14:39:13.380Z,43.30
2018-07-25T14:41:42.077Z,42.48
2018-07-25T14:44:11.252Z,41.59
2018-07-25T14:46:40.298Z,40.39
2018-07-25T14:49:08.971Z,39.82
2018-07-25T14:51:37.772Z,39.40
2018-07-25T14:54:06.480Z,38.84
2018-07-25T14:56:35.164Z,38.40
2018-07-25T14:59:04.057Z,37.91
2018-07-25T15:01:32.724Z,37.54
2018-07-25T15:04:01.854Z,36.92
2018-07-25T15:06:30.559Z,36.41
2018-07-25T15:08:59.460Z,36.16
2018-07-25T15:11:28.121Z,35.90
2018-07-25T15:13:57.003Z,35.72
2018-07-25T15:16:25.648Z,35.49
2018-07-25T15:18:54.346Z,35.12
2018-07-25T15:21:23.313Z,34.88
2018-07-25T15:24:04.171Z,34.79
2018-07-25T15:26:33.070Z,34.67
2018-07-25T15:29:03.198Z,34.56
2018-07-25T15:31:31.840Z,34.26
2018-07-25T15:34:00.540Z,33.98
2018-07-25T15:36:41.644Z,33.61
2018-07-25T15:39:28.468Z,33.35
2018-07-25T15:41:58.582Z,33.18
2018-07-25T15:44:28.467Z,33.18
2018-07-25T15:46:57.249Z,33.20
2018-07-25T15:49:27.051Z,33.21
2018-07-25T15:51:55.795Z,33.17
2018-07-25T15:54:24.854Z,33.06
2018-07-25T15:56:53.790Z,32.98
2018-07-25T15:59:22.844Z,32.90
2018-07-25T16:01:51.650Z,32.87
2018-07-25T16:04:20.367Z,32.83
2018-07-25T16:06:49.157Z,32.73
2018-07-25T16:09:18.180Z,32.63
2018-07-25T16:11:47.790Z,32.54
2018-07-25T16:14:16.913Z,32.47
2018-07-25T16:16:45.920Z,32.44
2018-07-25T16:19:15.112Z,32.40
2018-07-25T16:21:44.164Z,32.35
2018-07-25T16:24:13.332Z,32.36
2018-07-25T16:26:41.975Z,32.36
2018-07-25T16:29:10.761Z,32.36
2018-07-25T16:31:39.703Z,32.37
2018-07-25T16:34:08.387Z,32.31
2018-07-25T16:36:37.129Z,32.23
2018-07-25T16:39:09.165Z,32.18
2018-07-25T16:41:37.899Z,32.14
2018-07-25T16:44:06.613Z,32.08
2018-07-25T16:46:35.398Z,32.04
2018-07-25T16:49:04.120Z,32.01
2018-07-25T16:51:32.838Z,31.95
2018-07-25T16:54:01.947Z,31.89
2018-07-25T16:56:30.711Z,31.82
2018-07-25T16:58:59.382Z,31.75
2018-07-25T17:01:28.183Z,31.74
2018-07-25T17:03:57.075Z,31.67
2018-07-25T17:06:26.081Z,31.62
2018-07-25T17:08:54.993Z,31.58
2018-07-25T17:11:23.722Z,31.52
2018-07-25T17:13:52.407Z,31.48
2018-07-25T17:16:21.181Z,31.43
2018-07-25T17:18:50.024Z,31.36
2018-07-25T17:21:18.861Z,31.34
2018-07-25T17:23:47.764Z,31.28
2018-07-25T17:26:16.705Z,31.25
2018-07-25T17:28:45.636Z,31.23
2018-07-25T17:31:14.399Z,31.19
2018-07-25T17:33:43.329Z,31.17
2018-07-25T17:36:12.300Z,31.17
2018-07-25T17:38:41.445Z,31.12
2018-07-25T17:41:10.234Z,31.06
2018-07-25T17:43:38.924Z,31.01
2018-07-25T17:46:07.797Z,30.96
2018-07-25T17:48:36.773Z,30.91
2018-07-25T17:51:05.566Z,30.89
2018-07-25T17:53:34.578Z,30.89
2018-07-25T17:56:03.403Z,30.83
2018-07-25T17:58:32.426Z,30.81
2018-07-25T18:01:01.517Z,30.75
2018-07-25T18:03:30.663Z,30.73
2018-07-25T18:06:00.479Z,30.70
2018-07-25T18:08:29.609Z,30.66
2018-07-25T18:10:58.622Z,30.63
2018-07-25T18:13:32.794Z,30.62
2018-07-25T18:16:01.565Z,30.59
2018-07-25T18:18:30.619Z,30.58
2018-07-25T18:21:00.150Z,30.53
2018-07-25T18:23:28.870Z,30.53
2018-07-25T18:25:57.730Z,30.48
2018-07-25T18:28:26.904Z,30.43
2018-07-25T18:30:55.736Z,30.38
2018-07-25T18:33:27.187Z,30.34
2018-07-25T18:35:57.058Z,30.30
2018-07-25T18:38:26.182Z,30.28
2018-07-25T18:40:54.855Z,30.24
2018-07-25T18:43:23.585Z,30.19
2018-07-25T18:45:52.274Z,30.16
2018-07-25T18:48:21.042Z,30.10
2018-07-25T18:50:50.005Z,30.07
2018-07-25T18:53:20.893Z,30.03
2018-07-25T18:55:51.776Z,30.00
2018-07-25T18:58:20.515Z,29.96
2018-07-25T19:00:50.152Z,29.93
2018-07-25T19:03:19.016Z,29.90
2018-07-25T19:05:48.713Z,29.87
2018-07-25T19:08:18.573Z,29.85
2018-07-25T19:10:50.220Z,29.81
2018-07-25T19:13:24.185Z,29.79
2018-07-25T19:15:52.963Z,29.75
2018-07-25T19:18:21.962Z,29.74
2018-07-25T19:20:51.070Z,29.71
2018-07-25T19:23:20.105Z,29.69
2018-07-25T19:25:49.352Z,29.67
2018-07-25T19:28:18.313Z,29.72
2018-07-25T19:30:47.306Z,29.68
2018-07-25T19:33:15.983Z,29.64
2018-07-25T19:35:44.997Z,29.63
2018-07-25T19:38:14.022Z,29.59
2018-07-25T19:40:43.302Z,29.57
2018-07-25T19:43:11.953Z,29.55
2018-07-25T19:45:40.976Z,29.53
2018-07-25T19:48:09.664Z,29.49
2018-07-25T19:50:38.583Z,29.48
2018-07-25T19:53:07.430Z,29.45
2018-07-25T19:55:36.203Z,29.40
2018-07-25T19:58:05.376Z,29.35
2018-07-25T20:00:34.728Z,29.31
2018-07-25T20:03:03.843Z,29.26
2018-07-25T20:05:33.241Z,29.23
2018-07-25T20:08:02.530Z,29.20
2018-07-25T20:10:31.553Z,29.16
2018-07-25T20:13:00.310Z,29.14
2018-07-25T20:15:34.828Z,29.14
2018-07-25T20:18:03.978Z,29.15
2018-07-25T20:20:32.793Z,29.14
2018-07-25T20:23:01.721Z,29.13
2018-07-25T20:25:30.643Z,29.12
2018-07-25T20:28:00.750Z,29.11
2018-07-25T20:30:30.962Z,29.08
2018-07-25T20:33:00.008Z,29.07
2018-07-25T20:35:29.258Z,29.06
2018-07-25T20:37:58.260Z,29.04
2018-07-25T20:40:27.139Z,29.02
2018-07-25T20:42:55.884Z,29.00
2018-07-25T20:45:24.666Z,28.95
2018-07-25T20:47:53.630Z,28.92
2018-07-25T20:50:22.571Z,28.88
2018-07-25T20:52:52.833Z,28.84
2018-07-25T20:55:22.767Z,28.75
2018-07-25T20:57:52.582Z,28.71
2018-07-25T21:00:27.175Z,28.68
2018-07-25T21:02:57.115Z,28.67
2018-07-25T21:05:25.900Z,28.66
2018-07-25T21:07:54.645Z,28.62
2018-07-25T21:10:23.766Z,28.60
2018-07-25T21:12:55.083Z,28.58
2018-07-25T21:15:24.341Z,28.55
2018-07-25T21:17:53.659Z,28.52
2018-07-25T21:20:22.352Z,28.50
2018-07-25T21:22:51.061Z,28.47
2018-07-25T21:25:20.935Z,28.45
2018-07-25T21:27:49.641Z,28.44
2018-07-25T21:30:18.953Z,28.40
2018-07-25T21:32:48.131Z,28.37
2018-07-25T21:35:16.858Z,28.33
2018-07-25T21:37:46.429Z,28.30
2018-07-25T21:40:15.928Z,28.28
2018-07-25T21:42:44.760Z,28.25
2018-07-25T21:45:13.991Z,28.21
2018-07-25T21:47:42.707Z,28.20
2018-07-25T21:50:11.798Z,28.16
2018-07-25T21:52:41.460Z,28.12
2018-07-25T21:55:10.184Z,28.10
2018-07-25T21:57:45.337Z,28.06
2018-07-25T22:00:17.994Z,28.04
2018-07-25T22:02:48.035Z,28.00
2018-07-25T22:05:19.867Z,27.94
2018-07-25T22:07:49.765Z,27.91
2018-07-25T22:10:18.838Z,27.89
2018-07-25T22:12:48.320Z,27.85
2018-07-25T22:15:18.199Z,27.83
2018-07-25T22:17:46.881Z,27.80
2018-07-25T22:20:17.031Z,27.79
2018-07-25T22:22:45.824Z,27.77
2018-07-25T22:25:14.849Z,27.69
2018-07-25T22:27:44.698Z,27.64
2018-07-25T22:30:13.950Z,27.59
2018-07-25T22:32:42.928Z,27.56
2018-07-25T22:35:11.597Z,27.55
2018-07-25T22:37:40.326Z,27.55
2018-07-25T22:40:08.950Z,27.52
2018-07-25T22:42:37.594Z,27.51
2018-07-25T22:45:06.348Z,27.48
2018-07-25T22:47:35.002Z,27.46
2018-07-25T22:50:04.350Z,27.44
2018-07-25T22:52:33.548Z,27.41
2018-07-25T22:55:02.327Z,27.39
2018-07-25T22:57:31.046Z,27.39
2018-07-25T23:00:00.100Z,27.35
2018-07-25T23:02:28.842Z,27.34
2018-07-25T23:04:57.480Z,27.32
2018-07-25T23:07:26.986Z,27.29
2018-07-25T23:09:55.951Z,27.26
2018-07-25T23:12:24.902Z,27.22
2018-07-25T23:14:53.886Z,27.20
2018-07-25T23:17:22.525Z,27.18
2018-07-25T23:19:51.524Z,27.16
2018-07-25T23:22:20.127Z,27.13
2018-07-25T23:24:49.116Z,27.05
2018-07-25T23:27:17.738Z,26.90
2018-07-25T23:29:46.353Z,26.89
2018-07-25T23:32:15.296Z,26.84
2018-07-25T23:34:44.313Z,26.70
2018-07-25T23:37:13.004Z,26.63
2018-07-25T23:39:41.696Z,26.60
2018-07-25T23:42:10.398Z,26.55
2018-07-25T23:44:39.110Z,26.54
2018-07-25T23:47:08.000Z,26.56
2018-07-25T23:49:37.459Z,26.57
2018-07-25T23:52:06.205Z,26.59
2018-07-25T23:54:34.850Z,26.59
2018-07-25T23:57:03.467Z,26.53
2018-07-25T23:59:32.121Z,26.46
